Vancouver Int'l Airport, British Columbia

Past 24 Hour Conditions

Date / Time
(PDT)
Conditions Temp
(°C)
Humidity
(%)
Dew Point
(°C)
Wind
(km/h)
Pressure
(kPa)
Visibility
(km)
31 March 2015
21:00 Partly Cloudy 7   74 3 N 5 102.0 32
20:00 Mostly Cloudy 8 68 3 WSW 10 101.9 32
19:00 Light Rainshower 9 70 4 SW 34 gust 50 101.9 48
18:00 Mostly Cloudy 10 66 4 SSW 18 gust 35 101.9 48
17:00 Mostly Cloudy 10 67 5 SSW 18 101.9 48
16:00 Mostly Cloudy 11 55 3 WSW 14 101.9 48
15:00 Mostly Cloudy 11 65 5 SW 13 101.8 48
14:00 Mostly Cloudy 11 64 4 SW 13 101.8 48
13:00 Mostly Cloudy 11 68 6 W 17 101.8 48
12:00 Partly Cloudy 10 68 5 WSW 17 101.7 48
11:00 Partly Cloudy 10 71 5 WSW 18 101.7 48
10:00 Partly Cloudy 10 78 6 SW 18 101.6 48
9:00 Mostly Cloudy 9 73 5 W 17 101.5 48
8:00 Partly Cloudy 8 81 5 W 18 101.4 48
7:00 Partly Cloudy 7   81 4 WNW 21 101.4 32
6:00 Mostly Cloudy 8 82 5 W 26 gust 35 101.3 24
5:00 Mostly Cloudy 8 83 5 W 33 gust 44 101.2 24
4:00 Mostly Cloudy 8 84 5 WNW 40 gust 54 101.1 19
3:00 Mostly Cloudy 8 82 5 WNW 43 gust 59 101.0 16
2:00 Light Rainshower 8 90 6 WNW 37 gust 48 100.8 13
1:00 Rain 9 96 8 WNW 37 100.8 8
00:00 Mostly Cloudy 12 85 10 ESE 17 100.7 24
30 March 2015
23:00 Mostly Cloudy 13 78 9 ESE 16 100.8 24
22:00 Mostly Cloudy 13 78 10 E 13 100.9 24
21:00 Mostly Cloudy 14   72 9 E 10 100.9 32
N/A Not available
↑ Highest temperature
↓ Lowest temperature

If you require additional historical weather information, please visit Climate Data Online.

What we are doing

Date modified: